Goudge, Argentina
Current Conditions -  °F | °C
As of 7:00 AM on Monday 20 Oct 2014 (Local Time) from SAME Reporting Station
Clear Clear  
Wind Chill: 61°   Ceiling: Unl
Heat Index: 61°   Visibility: 6mi
Dew Point: 39°   Wind: 0mph
Humidity: 45%   Direction: NA
Pressure: 30.03"   Gusts: NA
Location:  34.67°S, 68.13°W
Report Text: SAME 201000Z 00000KT CAVOK 16/04 Q1017
Loading
Personal Weather Stations






























Interactive Weather Map New forecast layout! Learn more

10-Day Weather Forecast

Advertisements
Track Severe Weather on mobile